Time;durP1;ratioP1;P1;durP2;ratioP2;P2;SDS_P1;SDS_P2;PMS_P1;PMS_P2;Temp;Humidity;BMP_temperature;BMP_pressure;BME280_temperature;BME280_humidity;BME280_pressure;Samples;Min_cycle;Max_cycle;Signal;HPM_P1;HPM_P2
2023/09/09 00:02:04;;;;;;;15.55;9.70;;;19.40;99.90;;;;;;5003802;28;20026;-72
2023/09/09 00:04:29;;;;;;;13.40;9.10;;;19.40;99.90;;;;;;5001683;28;20039;-73
2023/09/09 00:06:56;;;;;;;14.40;10.07;;;19.40;99.90;;;;;;5002777;28;20023;-74
2023/09/09 00:09:21;;;;;;;17.70;9.68;;;19.40;99.90;;;;;;5003346;28;20030;-73
2023/09/09 00:11:47;;;;;;;16.15;9.38;;;19.40;99.90;;;;;;5002931;28;20165;-73
2023/09/09 00:14:13;;;;;;;12.45;9.07;;;19.30;99.90;;;;;;5003226;28;20030;-73
2023/09/09 00:16:38;;;;;;;12.57;9.10;;;19.30;99.90;;;;;;5004101;28;20030;-74
2023/09/09 00:19:05;;;;;;;14.68;10.52;;;19.30;99.90;;;;;;5002580;28;20018;-75
2023/09/09 00:21:30;;;;;;;13.20;9.77;;;19.20;99.90;;;;;;5002264;28;20049;-75
2023/09/09 00:23:56;;;;;;;15.27;9.93;;;19.20;99.90;;;;;;5003075;28;20053;-74
2023/09/09 00:26:22;;;;;;;13.93;9.75;;;19.20;99.90;;;;;;5003036;28;20023;-73
2023/09/09 00:28:47;;;;;;;11.95;9.35;;;19.10;99.90;;;;;;5002516;28;20019;-73
2023/09/09 00:31:13;;;;;;;15.90;9.68;;;19.10;99.90;;;;;;5001874;28;20042;-74
2023/09/09 00:33:39;;;;;;;13.48;9.70;;;19.10;99.90;;;;;;5003159;28;20033;-73
2023/09/09 00:36:04;;;;;;;14.05;9.95;;;19.00;99.90;;;;;;5002811;28;20038;-73
2023/09/09 00:38:30;;;;;;;14.77;9.18;;;19.00;99.90;;;;;;5002693;28;20026;-74
2023/09/09 00:41:14;;;;;;;18.13;9.68;;;19.00;99.90;;;;;;5003038;28;20975;-74
2023/09/09 00:43:40;;;;;;;11.88;8.98;;;19.00;99.90;;;;;;5002977;28;20030;-74
2023/09/09 00:46:07;;;;;;;12.90;9.60;;;18.90;99.90;;;;;;5002087;28;20049;-74
2023/09/09 00:48:33;;;;;;;12.65;9.35;;;18.90;99.90;;;;;;5002514;28;20032;-73
2023/09/09 00:50:59;;;;;;;16.77;9.93;;;18.90;99.90;;;;;;5002794;28;20109;-75
2023/09/09 00:53:25;;;;;;;13.30;9.70;;;18.90;99.90;;;;;;5001406;28;20052;-75
2023/09/09 00:55:52;;;;;;;13.05;10.00;;;18.80;99.90;;;;;;5001290;28;20026;-74
2023/09/09 00:58:18;;;;;;;15.85;10.15;;;18.80;99.90;;;;;;5002678;28;20034;-72
2023/09/09 01:00:44;;;;;;;13.70;10.73;;;18.70;99.90;;;;;;5001737;28;20041;-74
2023/09/09 01:03:09;;;;;;;17.17;10.55;;;18.70;99.90;;;;;;5000885;28;20018;-72
2023/09/09 01:05:38;;;;;;;13.95;9.85;;;18.70;99.90;;;;;;5002728;28;20072;-72
2023/09/09 01:08:04;;;;;;;16.45;9.70;;;18.70;99.90;;;;;;5000754;28;20109;-72
2023/09/09 01:10:30;;;;;;;20.20;10.45;;;18.70;99.90;;;;;;5001480;28;20069;-75
2023/09/09 01:12:56;;;;;;;15.98;9.68;;;18.60;99.90;;;;;;5001206;28;20408;-74
2023/09/09 01:15:22;;;;;;;13.75;9.73;;;18.60;99.90;;;;;;5001552;28;20007;-75
2023/09/09 01:17:48;;;;;;;14.02;10.05;;;18.60;99.90;;;;;;5000213;28;20029;-76
2023/09/09 01:20:19;;;;;;;20.65;10.98;;;18.60;99.90;;;;;;4999886;28;20416;-74
2023/09/09 01:22:48;;;;;;;15.27;10.75;;;18.60;99.90;;;;;;4999641;28;20022;-75
2023/09/09 01:25:14;;;;;;;16.00;10.63;;;18.50;99.90;;;;;;5000059;28;20049;-75
2023/09/09 01:27:41;;;;;;;14.10;10.73;;;18.50;99.90;;;;;;5000960;28;20468;-73
2023/09/09 01:30:08;;;;;;;18.63;11.45;;;18.50;99.90;;;;;;5001263;28;20061;-73
2023/09/09 01:32:35;;;;;;;17.02;10.85;;;18.40;99.90;;;;;;5000657;28;20044;-73
2023/09/09 01:35:06;;;;;;;15.57;10.30;;;18.40;99.90;;;;;;5001649;28;20042;-74
2023/09/09 01:37:34;;;;;;;16.23;10.50;;;18.40;99.90;;;;;;5001144;28;20030;-75
2023/09/09 01:40:09;;;;;;;18.08;10.77;;;18.30;99.90;;;;;;5000655;28;20066;-73
2023/09/09 01:42:35;;;;;;;14.45;10.18;;;18.30;99.90;;;;;;5001645;28;20101;-75
2023/09/09 01:45:00;;;;;;;19.00;10.52;;;18.30;99.90;;;;;;4999933;28;20053;-73
2023/09/09 01:47:26;;;;;;;15.30;10.88;;;18.20;99.90;;;;;;5000254;28;20022;-75
2023/09/09 01:49:51;;;;;;;16.90;11.35;;;18.20;99.90;;;;;;5001406;28;20035;-73
2023/09/09 01:52:17;;;;;;;19.05;11.70;;;18.20;99.90;;;;;;5000531;28;20512;-74
2023/09/09 01:54:43;;;;;;;14.25;11.10;;;18.20;99.90;;;;;;5000800;28;20118;-73
2023/09/09 01:57:08;;;;;;;15.00;11.10;;;18.10;99.90;;;;;;5001644;28;20053;-73
2023/09/09 01:59:34;;;;;;;19.38;11.30;;;18.10;99.90;;;;;;5001183;28;20030;-73
2023/09/09 02:02:00;;;;;;;17.33;10.82;;;18.10;99.90;;;;;;4999841;28;20030;-73
2023/09/09 02:04:25;;;;;;;20.23;11.15;;;18.10;99.90;;;;;;5000166;28;20053;-72
2023/09/09 02:06:51;;;;;;;17.25;11.65;;;18.10;99.90;;;;;;5000601;28;20072;-73
2023/09/09 02:09:16;;;;;;;16.23;11.55;;;18.00;99.90;;;;;;5002154;28;20038;-73
2023/09/09 02:11:42;;;;;;;16.67;11.25;;;18.00;99.90;;;;;;5001635;28;20018;-73
2023/09/09 02:14:08;;;;;;;18.20;11.57;;;18.00;99.90;;;;;;5001470;28;20057;-73
2023/09/09 02:16:33;;;;;;;16.77;11.68;;;18.00;99.90;;;;;;5000503;28;20030;-73
2023/09/09 02:18:59;;;;;;;17.35;11.98;;;17.90;99.90;;;;;;5001434;28;20031;-72
2023/09/09 02:21:24;;;;;;;14.40;11.38;;;17.90;99.90;;;;;;5000677;28;20102;-73
2023/09/09 02:23:50;;;;;;;18.02;12.85;;;17.90;99.90;;;;;;5002074;28;20961;-74
2023/09/09 02:26:15;;;;;;;16.63;12.45;;;17.90;99.90;;;;;;5000441;28;20028;-74
2023/09/09 02:28:41;;;;;;;15.70;12.00;;;17.80;99.90;;;;;;5001882;28;20022;-72
2023/09/09 02:31:07;;;;;;;16.80;12.10;;;17.80;99.90;;;;;;5002115;28;20027;-72
2023/09/09 02:33:33;;;;;;;21.05;11.88;;;17.80;99.90;;;;;;5000006;28;20034;-75
2023/09/09 02:35:59;;;;;;;21.30;12.25;;;17.80;99.90;;;;;;5000226;28;20209;-73
2023/09/09 02:38:25;;;;;;;16.30;12.05;;;17.80;99.90;;;;;;5001928;28;20015;-73
2023/09/09 02:40:51;;;;;;;19.98;11.93;;;17.80;99.90;;;;;;5001269;28;20034;-73
2023/09/09 02:43:17;;;;;;;17.30;12.63;;;17.70;99.90;;;;;;4999149;28;20029;-75
2023/09/09 02:45:42;;;;;;;15.98;11.88;;;17.70;99.90;;;;;;4999989;28;20033;-74
2023/09/09 02:48:08;;;;;;;17.40;12.20;;;17.60;99.90;;;;;;5001387;28;20431;-73
2023/09/09 02:50:35;;;;;;;17.80;13.00;;;17.60;99.90;;;;;;5001861;28;20056;-73
2023/09/09 02:53:00;;;;;;;17.60;14.05;;;17.60;99.90;;;;;;5001058;28;20079;-73
2023/09/09 02:55:26;;;;;;;19.23;13.82;;;17.60;99.90;;;;;;4999728;28;20101;-73
2023/09/09 02:57:52;;;;;;;17.10;13.82;;;17.60;99.90;;;;;;5000448;28;20022;-74
2023/09/09 03:00:17;;;;;;;20.77;13.20;;;17.60;99.90;;;;;;5001403;28;20034;-72
2023/09/09 03:02:47;;;;;;;20.42;13.30;;;17.60;99.90;;;;;;5002113;28;20062;-76
2023/09/09 03:05:13;;;;;;;18.02;13.60;;;17.50;99.90;;;;;;5004018;28;20028;-75
2023/09/09 03:07:39;;;;;;;21.40;14.02;;;17.50;99.90;;;;;;5005240;28;20068;-75
2023/09/09 03:10:05;;;;;;;21.17;13.25;;;17.50;99.90;;;;;;5004884;28;20026;-72
2023/09/09 03:12:31;;;;;;;20.20;13.52;;;17.50;99.90;;;;;;5004311;28;20019;-73
2023/09/09 03:14:57;;;;;;;17.35;12.05;;;17.40;99.90;;;;;;5004602;28;20061;-74
2023/09/09 03:17:23;;;;;;;23.60;13.15;;;17.40;99.90;;;;;;5004686;28;20022;-73
2023/09/09 03:19:48;;;;;;;17.20;12.35;;;17.40;99.90;;;;;;5002731;28;20027;-73
2023/09/09 03:22:14;;;;;;;17.63;11.75;;;17.30;99.90;;;;;;5003236;28;20041;-73
2023/09/09 03:24:40;;;;;;;17.17;12.45;;;17.30;99.90;;;;;;5003623;28;20388;-75
2023/09/09 03:27:05;;;;;;;16.77;13.15;;;17.30;99.90;;;;;;5005028;28;20098;-73
2023/09/09 03:29:31;;;;;;;19.50;13.57;;;17.30;99.90;;;;;;5002808;28;20026;-74
2023/09/09 03:31:56;;;;;;;18.45;13.38;;;17.30;99.90;;;;;;5010460;28;20030;-72
2023/09/09 03:34:22;;;;;;;19.85;13.38;;;17.20;99.90;;;;;;5004187;28;20065;-74
2023/09/09 03:36:48;;;;;;;17.48;12.85;;;17.20;99.90;;;;;;5004340;28;20543;-71
2023/09/09 03:39:13;;;;;;;18.48;12.82;;;17.20;99.90;;;;;;5004511;28;20026;-73
2023/09/09 03:41:40;;;;;;;19.45;12.90;;;17.20;99.90;;;;;;5004260;28;20041;-72
2023/09/09 03:44:05;;;;;;;16.48;12.95;;;17.20;99.90;;;;;;5003178;28;20030;-73
2023/09/09 03:46:31;;;;;;;21.65;13.90;;;17.10;99.90;;;;;;5003840;28;20105;-72
2023/09/09 03:48:57;;;;;;;20.00;12.90;;;17.10;99.90;;;;;;5003619;28;20061;-72
2023/09/09 03:51:22;;;;;;;17.88;12.10;;;17.10;99.90;;;;;;5001422;28;20026;-72
2023/09/09 03:53:49;;;;;;;19.08;12.65;;;17.10;99.90;;;;;;5002176;28;20121;-74
2023/09/09 03:56:18;;;;;;;20.25;13.02;;;17.10;99.90;;;;;;5002420;28;20054;-73
2023/09/09 03:58:44;;;;;;;20.25;13.63;;;17.10;99.90;;;;;;5002342;28;20027;-73
2023/09/09 04:01:12;;;;;;;17.58;13.63;;;17.00;99.90;;;;;;5003068;28;20030;-73
2023/09/09 04:03:38;;;;;;;18.27;13.55;;;17.00;99.90;;;;;;5002875;28;20030;-73
2023/09/09 04:06:12;;;;;;;20.42;13.25;;;17.00;99.90;;;;;;5001453;28;20034;-73
2023/09/09 04:08:39;;;;;;;16.95;13.30;;;17.00;99.90;;;;;;5004323;28;20062;-72
2023/09/09 04:11:06;;;;;;;18.75;13.27;;;17.00;99.90;;;;;;5002837;28;20034;-72
2023/09/09 04:13:32;;;;;;;17.55;12.30;;;16.90;99.90;;;;;;5003508;28;20081;-72
2023/09/09 04:15:59;;;;;;;20.23;13.90;;;16.90;99.90;;;;;;5002909;28;20031;-73
2023/09/09 04:18:26;;;;;;;19.85;13.70;;;16.90;99.90;;;;;;5001826;28;20098;-73
2023/09/09 04:20:52;;;;;;;20.55;15.38;;;16.90;99.90;;;;;;5003368;28;20036;-74
2023/09/09 04:23:18;;;;;;;20.38;14.55;;;16.90;99.90;;;;;;5003291;28;20074;-75
2023/09/09 04:25:45;;;;;;;25.02;16.10;;;16.90;99.90;;;;;;5002567;28;20026;-74
2023/09/09 04:28:11;;;;;;;19.30;14.73;;;16.90;99.90;;;;;;5002905;28;20049;-75
2023/09/09 04:30:40;;;;;;;23.20;16.02;;;16.90;99.90;;;;;;5003102;28;20030;-74
2023/09/09 04:33:07;;;;;;;21.00;15.55;;;16.80;99.90;;;;;;5001710;28;20050;-75
2023/09/09 04:35:33;;;;;;;21.70;15.55;;;16.80;99.90;;;;;;5001352;28;20088;-73
2023/09/09 04:37:59;;;;;;;22.25;16.38;;;16.80;99.90;;;;;;5001838;28;20046;-74
2023/09/09 04:40:24;;;;;;;24.98;16.45;;;16.80;99.90;;;;;;5001453;28;20053;-74
2023/09/09 04:42:50;;;;;;;21.75;16.27;;;16.80;99.90;;;;;;5003459;28;20041;-74
2023/09/09 04:45:16;;;;;;;22.60;16.15;;;16.80;99.90;;;;;;5001012;28;20031;-75
2023/09/09 04:47:41;;;;;;;24.23;16.00;;;16.80;99.90;;;;;;5003319;28;20026;-74
2023/09/09 04:50:07;;;;;;;22.30;15.90;;;16.80;99.90;;;;;;5002138;28;20034;-73
2023/09/09 04:52:33;;;;;;;25.52;16.90;;;16.80;99.90;;;;;;5001453;28;20555;-73
2023/09/09 04:54:59;;;;;;;26.13;15.95;;;16.70;99.90;;;;;;4999559;28;20180;-74
2023/09/09 04:57:24;;;;;;;22.02;16.00;;;16.70;99.90;;;;;;5002266;28;20033;-72
2023/09/09 04:59:50;;;;;;;23.48;16.38;;;16.70;99.90;;;;;;5002464;28;20037;-71
2023/09/09 05:02:16;;;;;;;23.55;15.57;;;16.70;99.90;;;;;;5002262;28;20066;-73
2023/09/09 05:04:41;;;;;;;22.80;15.95;;;16.60;99.90;;;;;;5003110;28;20030;-73
2023/09/09 05:07:09;;;;;;;24.33;15.70;;;16.70;99.90;;;;;;5001400;28;20506;-71
2023/09/09 05:09:35;;;;;;;24.38;16.02;;;16.70;99.90;;;;;;5002833;28;20010;-72
2023/09/09 05:12:01;;;;;;;24.42;16.17;;;16.70;99.90;;;;;;5001429;28;20019;-71
2023/09/09 05:14:30;;;;;;;24.65;16.13;;;16.70;99.90;;;;;;5001635;28;20041;-74
2023/09/09 05:16:55;;;;;;;23.90;15.63;;;16.70;99.90;;;;;;5000916;28;20031;-73
2023/09/09 05:19:22;;;;;;;25.40;16.13;;;16.70;99.90;;;;;;5001974;28;20065;-73
2023/09/09 05:21:48;;;;;;;24.27;15.82;;;16.70;99.90;;;;;;5001717;28;20034;-73
2023/09/09 05:24:14;;;;;;;22.95;16.40;;;16.70;99.90;;;;;;5001051;28;20030;-73
2023/09/09 05:26:40;;;;;;;22.58;17.13;;;16.70;99.90;;;;;;5002117;28;20579;-74
2023/09/09 05:29:06;;;;;;;24.73;17.45;;;16.70;99.90;;;;;;5000863;28;20054;-72
2023/09/09 05:31:31;;;;;;;22.33;15.88;;;16.70;99.90;;;;;;5002081;28;20034;-73
2023/09/09 05:33:57;;;;;;;24.20;16.60;;;16.70;99.90;;;;;;5000887;28;20434;-75
2023/09/09 05:36:23;;;;;;;25.88;17.20;;;16.80;99.90;;;;;;5002157;28;20030;-73
2023/09/09 05:38:59;;;;;;;25.33;17.05;;;16.80;99.90;;;;;;5002283;28;20061;-72
2023/09/09 05:41:29;;;;;;;27.17;18.65;;;16.80;99.90;;;;;;5016985;28;20046;-74
2023/09/09 05:43:55;;;;;;;26.48;17.85;;;16.90;99.90;;;;;;5002288;28;20037;-72
2023/09/09 05:46:21;;;;;;;26.65;18.42;;;16.90;99.90;;;;;;5002367;28;20026;-71
2023/09/09 05:48:46;;;;;;;27.83;18.20;;;16.90;99.90;;;;;;5001999;28;20030;-71
2023/09/09 05:51:12;;;;;;;24.15;17.80;;;16.90;99.90;;;;;;5000719;28;20030;-72
2023/09/09 05:53:38;;;;;;;28.23;17.95;;;17.00;99.90;;;;;;5000897;28;20038;-72
2023/09/09 05:56:03;;;;;;;25.20;17.85;;;17.00;99.90;;;;;;5002153;28;20464;-71
2023/09/09 05:58:29;;;;;;;24.17;18.23;;;17.10;99.90;;;;;;5001473;28;20466;-72
2023/09/09 06:00:55;;;;;;;23.33;18.20;;;17.10;99.90;;;;;;5002411;28;20033;-72
2023/09/09 06:03:20;;;;;;;28.40;18.73;;;17.20;99.90;;;;;;5000242;28;20116;-72
2023/09/09 06:05:47;;;;;;;24.85;17.77;;;17.20;99.90;;;;;;5000986;28;20050;-73
2023/09/09 06:08:12;;;;;;;25.42;18.05;;;17.20;99.90;;;;;;5002424;28;20047;-73
2023/09/09 06:10:38;;;;;;;24.77;18.80;;;17.20;99.90;;;;;;5002264;28;20534;-75
2023/09/09 06:13:04;;;;;;;29.58;18.92;;;17.30;99.90;;;;;;5002436;28;20049;-74
2023/09/09 06:15:29;;;;;;;26.30;18.63;;;17.30;99.90;;;;;;5000322;28;20626;-73
2023/09/09 06:17:57;;;;;;;26.77;18.15;;;17.30;99.90;;;;;;5001668;28;20014;-73
2023/09/09 06:20:23;;;;;;;30.08;18.98;;;17.40;99.90;;;;;;5002043;28;20015;-72
2023/09/09 06:22:48;;;;;;;27.10;18.25;;;17.40;99.90;;;;;;5000589;28;20033;-73
2023/09/09 06:25:14;;;;;;;26.90;17.77;;;17.40;99.90;;;;;;5001943;28;20464;-72
2023/09/09 06:27:40;;;;;;;25.55;17.80;;;17.40;99.90;;;;;;5001357;28;20034;-74
2023/09/09 06:30:06;;;;;;;25.95;18.10;;;17.40;99.90;;;;;;5002099;28;20062;-73
2023/09/09 06:32:32;;;;;;;25.98;18.98;;;17.40;99.90;;;;;;5001015;28;20027;-73
2023/09/09 06:34:57;;;;;;;24.50;18.27;;;17.50;99.90;;;;;;5001704;28;20046;-73
2023/09/09 06:37:23;;;;;;;25.70;18.92;;;17.50;99.90;;;;;;4996661;28;20462;-73
2023/09/09 06:39:50;;;;;;;27.23;18.40;;;17.50;99.90;;;;;;4996407;28;20202;-73
2023/09/09 06:42:15;;;;;;;23.70;18.00;;;17.50;99.90;;;;;;4997543;28;20030;-72
2023/09/09 06:44:41;;;;;;;25.48;18.58;;;17.60;99.90;;;;;;5001770;28;20037;-74
2023/09/09 06:47:06;;;;;;;22.77;17.65;;;17.60;99.90;;;;;;5003831;28;20034;-72
2023/09/09 06:49:35;;;;;;;26.65;18.10;;;17.60;99.90;;;;;;5005153;28;20031;-72
2023/09/09 06:52:00;;;;;;;24.42;19.02;;;17.70;99.90;;;;;;5005057;28;20418;-73
2023/09/09 06:54:26;;;;;;;25.98;18.38;;;17.70;99.90;;;;;;5004344;28;20073;-72
2023/09/09 06:56:52;;;;;;;29.70;18.95;;;17.80;99.90;;;;;;5003217;28;20023;-75
2023/09/09 06:59:17;;;;;;;24.20;18.15;;;17.90;99.90;;;;;;5003577;28;20026;-73
2023/09/09 07:01:43;;;;;;;24.23;18.63;;;17.90;99.90;;;;;;5004388;28;20026;-73
2023/09/09 07:04:09;;;;;;;27.35;18.55;;;18.00;99.90;;;;;;5002870;28;20122;-73
2023/09/09 07:06:34;;;;;;;26.75;18.45;;;18.00;99.90;;;;;;5002159;28;20042;-74
2023/09/09 07:09:00;;;;;;;24.38;18.30;;;18.10;99.90;;;;;;5002415;28;20034;-73
2023/09/09 07:11:26;;;;;;;29.90;19.40;;;18.20;99.90;;;;;;5002074;28;20188;-73
2023/09/09 07:13:51;;;;;;;23.27;18.20;;;18.30;99.90;;;;;;5001091;28;20547;-73
2023/09/09 07:16:17;;;;;;;21.92;18.02;;;18.40;99.90;;;;;;5002967;28;20041;-75
2023/09/09 07:18:43;;;;;;;23.30;18.40;;;18.50;99.90;;;;;;5002556;28;20420;-73
2023/09/09 07:21:08;;;;;;;25.30;18.92;;;18.50;99.90;;;;;;5003261;28;20054;-73
2023/09/09 07:23:34;;;;;;;24.02;18.38;;;18.60;99.90;;;;;;5004622;28;20076;-72
2023/09/09 07:26:00;;;;;;;26.23;17.30;;;18.70;99.90;;;;;;5003106;28;20058;-72
2023/09/09 07:28:25;;;;;;;25.90;17.63;;;18.80;99.90;;;;;;5004992;28;20037;-74
2023/09/09 07:30:51;;;;;;;26.60;17.73;;;18.90;99.90;;;;;;5003081;28;20442;-73
2023/09/09 07:33:18;;;;;;;21.40;17.20;;;19.00;99.90;;;;;;5003947;28;20057;-74
2023/09/09 07:35:44;;;;;;;27.10;17.77;;;19.10;99.90;;;;;;5004237;28;20050;-75
2023/09/09 07:38:10;;;;;;;31.40;17.42;;;19.20;99.90;;;;;;5004602;28;20054;-75
2023/09/09 07:40:35;;;;;;;27.30;17.92;;;19.30;99.90;;;;;;5004256;28;20021;-75
2023/09/09 07:43:02;;;;;;;36.75;18.35;;;19.40;99.90;;;;;;5003596;28;20023;-73
2023/09/09 07:45:28;;;;;;;41.30;19.25;;;19.40;99.90;;;;;;5003252;28;20082;-74
2023/09/09 07:47:53;;;;;;;32.20;18.90;;;19.50;99.90;;;;;;5003909;28;20043;-74
2023/09/09 07:50:19;;;;;;;74.63;20.65;;;19.60;99.90;;;;;;5002749;28;20285;-73
2023/09/09 07:52:44;;;;;;;24.98;18.00;;;19.70;99.90;;;;;;5001627;28;20069;-72
2023/09/09 07:55:10;;;;;;;30.50;18.02;;;19.70;99.90;;;;;;5004338;28;20038;-75
2023/09/09 07:57:36;;;;;;;27.63;18.63;;;19.80;99.90;;;;;;5003711;28;20029;-74
2023/09/09 08:00:02;;;;;;;24.58;19.10;;;19.90;99.90;;;;;;5004068;28;21557;-73
2023/09/09 08:02:28;;;;;;;24.08;18.70;;;20.00;99.90;;;;;;5002870;28;20058;-74
2023/09/09 08:04:53;;;;;;;28.13;18.35;;;20.10;99.90;;;;;;5001044;28;20479;-73
2023/09/09 08:07:19;;;;;;;34.00;18.67;;;20.20;99.90;;;;;;5003522;28;20557;-74
2023/09/09 08:09:45;;;;;;;26.63;19.13;;;20.30;99.90;;;;;;5003312;28;20041;-70
2023/09/09 08:12:10;;;;;;;26.00;18.95;;;20.40;99.90;;;;;;5003714;28;20025;-72
2023/09/09 08:14:36;;;;;;;32.25;19.48;;;20.50;99.90;;;;;;5003495;28;20030;-72
2023/09/09 08:17:01;;;;;;;33.38;19.50;;;20.70;99.90;;;;;;5002408;28;20062;-71
2023/09/09 08:19:27;;;;;;;28.75;20.42;;;20.80;99.90;;;;;;5003696;28;20082;-73
2023/09/09 08:21:52;;;;;;;29.88;20.88;;;20.90;99.90;;;;;;5003672;28;20037;-72
2023/09/09 08:24:18;;;;;;;32.05;19.30;;;21.00;99.90;;;;;;5003273;28;20037;-74
2023/09/09 08:26:44;;;;;;;32.42;19.85;;;21.10;99.90;;;;;;5002405;28;20022;-73
2023/09/09 08:29:10;;;;;;;29.30;19.27;;;21.20;99.90;;;;;;5001301;28;20026;-75
2023/09/09 08:31:36;;;;;;;30.23;21.23;;;21.40;99.90;;;;;;5001842;28;20033;-73
2023/09/09 08:34:01;;;;;;;28.67;20.00;;;21.40;99.90;;;;;;5000279;28;20054;-74
2023/09/09 08:36:28;;;;;;;32.28;20.70;;;21.50;99.90;;;;;;4998094;28;20041;-72
2023/09/09 08:38:56;;;;;;;34.15;19.67;;;21.60;99.90;;;;;;5015295;28;20034;-76
2023/09/09 08:41:28;;;;;;;32.08;19.35;;;21.70;99.90;;;;;;5001480;28;20042;-73
2023/09/09 08:43:56;;;;;;;34.03;20.75;;;21.80;99.90;;;;;;4999480;28;20120;-71
2023/09/09 08:46:22;;;;;;;28.75;19.55;;;21.90;99.90;;;;;;5009152;28;20030;-73
2023/09/09 08:48:52;;;;;;;26.63;19.85;;;22.00;99.90;;;;;;5002360;28;20022;-71
2023/09/09 08:51:38;;;;;;;30.42;18.88;;;22.10;99.90;;;;;;5002510;28;20041;-73
2023/09/09 08:54:05;;;;;;;27.67;20.73;;;22.20;99.90;;;;;;5008741;28;20065;-73
2023/09/09 08:56:32;;;;;;;29.95;18.10;;;22.30;99.90;;;;;;4999515;28;20030;-72
2023/09/09 08:58:58;;;;;;;30.38;19.48;;;22.40;99.90;;;;;;4999786;28;20022;-74
2023/09/09 09:01:26;;;;;;;27.75;17.65;;;22.60;99.90;;;;;;5000215;28;20041;-73
2023/09/09 09:03:54;;;;;;;23.58;18.30;;;22.70;99.90;;;;;;5001746;28;20527;-73
2023/09/09 09:06:20;;;;;;;25.23;16.95;;;22.80;99.90;;;;;;5001252;28;20057;-73
2023/09/09 09:08:45;;;;;;;27.48;17.33;;;22.90;99.90;;;;;;5000626;28;20026;-72
2023/09/09 09:11:12;;;;;;;26.77;17.98;;;23.00;99.90;;;;;;5000734;28;20030;-73
2023/09/09 09:13:38;;;;;;;25.88;16.90;;;23.10;99.90;;;;;;5001799;28;20061;-73
2023/09/09 09:16:03;;;;;;;26.70;18.90;;;23.20;99.90;;;;;;5001602;28;20035;-72
2023/09/09 09:18:29;;;;;;;26.55;19.13;;;23.30;99.90;;;;;;5002276;28;20041;-75
2023/09/09 09:21:09;;;;;;;27.63;18.77;;;23.40;99.90;;;;;;5002423;28;20034;-73
2023/09/09 09:23:45;;;;;;;27.75;20.35;;;23.50;99.90;;;;;;4999833;28;20058;-73
2023/09/09 09:26:24;;;;;;;25.35;17.42;;;23.60;99.90;;;;;;5000034;28;20042;-73
2023/09/09 09:28:51;;;;;;;25.45;18.05;;;23.70;99.90;;;;;;5001357;28;20042;-76
2023/09/09 09:31:21;;;;;;;26.27;18.95;;;23.80;99.90;;;;;;5000407;28;20037;-72
2023/09/09 09:33:56;;;;;;;21.63;16.33;;;23.90;99.90;;;;;;4999487;28;20038;-75
2023/09/09 09:36:23;;;;;;;24.42;18.50;;;23.90;99.90;;;;;;5000029;28;20451;-77
2023/09/09 09:38:49;;;;;;;22.75;16.55;;;24.00;99.90;;;;;;4999385;28;20072;-75
2023/09/09 09:41:17;;;;;;;25.13;19.38;;;24.10;99.90;;;;;;4999960;28;20030;-76
2023/09/09 09:43:48;;;;;;;24.05;18.63;;;24.20;99.90;;;;;;5001105;28;20029;-73
2023/09/09 09:46:20;;;;;;;22.08;17.52;;;24.20;99.90;;;;;;5000966;28;20038;-71
2023/09/09 09:48:46;;;;;;;24.48;17.48;;;24.30;99.90;;;;;;4994403;28;20157;-72
2023/09/09 09:51:13;;;;;;;21.83;17.00;;;24.40;99.90;;;;;;4998755;28;20026;-72
2023/09/09 09:53:47;;;;;;;26.58;18.38;;;24.50;99.90;;;;;;5000542;28;20053;-72
2023/09/09 09:56:17;;;;;;;24.00;17.73;;;24.60;99.90;;;;;;5001458;28;20057;-73
2023/09/09 09:58:46;;;;;;;23.15;16.95;;;24.70;99.90;;;;;;4997467;28;20030;-72
2023/09/09 10:01:12;;;;;;;26.15;15.93;;;24.80;99.90;;;;;;5000501;28;20025;-74
2023/09/09 10:03:57;;;;;;;23.45;15.30;;;24.90;99.90;;;;;;5001089;28;20073;-72
2023/09/09 10:06:27;;;;;;;21.67;15.95;;;25.00;99.90;;;;;;5001887;28;20081;-74
2023/09/09 10:09:19;;;;;;;19.40;16.38;;;25.20;99.90;;;;;;4999434;28;20102;-74
2023/09/09 10:11:53;;;;;;;23.23;17.80;;;25.30;99.90;;;;;;5006123;28;20042;-76
2023/09/09 10:14:23;;;;;;;20.17;15.63;;;25.40;99.90;;;;;;5005505;28;20038;-76
2023/09/09 10:16:51;;;;;;;23.48;14.45;;;25.50;99.90;;;;;;5005459;28;20022;-73
2023/09/09 10:19:19;;;;;;;21.08;16.15;;;25.70;99.90;;;;;;5004180;28;20090;-74
2023/09/09 10:21:46;;;;;;;22.52;14.93;;;25.80;99.90;;;;;;5005566;28;20032;-75
2023/09/09 10:24:14;;;;;;;21.85;14.88;;;25.80;99.90;;;;;;5004569;28;20029;-74
2023/09/09 10:26:41;;;;;;;20.00;14.10;;;25.90;99.90;;;;;;5003817;28;20050;-74
2023/09/09 10:29:08;;;;;;;34.22;15.82;;;25.90;99.90;;;;;;5005871;28;20038;-76
2023/09/09 10:31:36;;;;;;;28.80;14.82;;;26.00;99.90;;;;;;5001524;28;20105;-73
2023/09/09 10:34:02;;;;;;;23.50;13.85;;;26.00;99.90;;;;;;5003853;28;20414;-73
2023/09/09 10:36:31;;;;;;;26.17;13.85;;;26.00;99.90;;;;;;5004971;28;20113;-74
2023/09/09 10:38:56;;;;;;;24.25;14.40;;;26.20;99.90;;;;;;5003576;28;20022;-72
2023/09/09 10:41:22;;;;;;;19.63;15.93;;;26.30;99.90;;;;;;5003224;28;20026;-73
2023/09/09 10:43:48;;;;;;;20.17;16.50;;;26.30;99.90;;;;;;5003641;28;20050;-70
2023/09/09 10:46:14;;;;;;;19.30;14.93;;;26.40;99.90;;;;;;5005049;28;20391;-76
2023/09/09 10:48:43;;;;;;;29.27;16.75;;;26.50;99.90;;;;;;5004541;28;20403;-75
2023/09/09 10:51:09;;;;;;;24.75;17.10;;;26.70;99.90;;;;;;5002879;28;20054;-72
2023/09/09 10:53:35;;;;;;;28.30;17.73;;;26.80;99.90;;;;;;5003503;28;20026;-72
2023/09/09 10:56:21;;;;;;;20.33;14.13;;;26.90;99.90;;;;;;5002242;28;20073;-73
2023/09/09 10:58:50;;;;;;;21.20;16.13;;;27.00;99.90;;;;;;5002572;28;20058;-72
2023/09/09 11:01:42;;;;;;;31.63;16.58;;;27.10;99.90;;;;;;5002219;28;20065;-71
2023/09/09 11:04:22;;;;;;;23.27;15.70;;;27.20;99.90;;;;;;4992415;28;20101;-72
2023/09/09 11:07:09;;;;;;;34.92;15.55;;;27.20;99.90;;;;;;5000721;28;20026;-73
2023/09/09 11:09:36;;;;;;;21.05;13.35;;;27.30;99.90;;;;;;5000258;28;20040;-73
2023/09/09 11:12:13;;;;;;;17.50;12.77;;;27.40;99.90;;;;;;4994813;28;20076;-73
2023/09/09 11:14:45;;;;;;;14.98;10.13;;;27.50;99.90;;;;;;4993333;28;20499;-73
2023/09/09 11:17:13;;;;;;;19.83;12.65;;;27.60;99.90;;;;;;5002050;28;20062;-75
2023/09/09 11:19:40;;;;;;;20.65;13.38;;;27.70;99.90;;;;;;5002254;28;20049;-72
2023/09/09 11:22:07;;;;;;;20.73;11.95;;;27.80;99.90;;;;;;5000149;28;20031;-72
2023/09/09 11:24:34;;;;;;;14.07;11.10;;;27.90;99.90;;;;;;5002624;28;20027;-72
2023/09/09 11:26:59;;;;;;;17.80;11.75;;;27.90;99.90;;;;;;4998620;28;20368;-75
2023/09/09 11:29:25;;;;;;;14.35;11.73;;;28.00;99.90;;;;;;4998416;28;20175;-72
2023/09/09 11:31:51;;;;;;;16.67;11.90;;;28.20;99.90;;;;;;5003263;28;20050;-72
2023/09/09 11:34:26;;;;;;;13.75;10.05;;;28.30;99.90;;;;;;4998592;28;20124;-73
2023/09/09 11:36:53;;;;;;;13.32;10.65;;;28.30;99.90;;;;;;5001397;28;20081;-71
2023/09/09 11:39:19;;;;;;;13.50;9.85;;;28.40;99.90;;;;;;5001534;28;20026;-72
2023/09/09 11:41:44;;;;;;;12.00;9.80;;;28.50;99.90;;;;;;5004299;28;20114;-72
2023/09/09 11:44:10;;;;;;;11.63;9.20;;;28.70;99.90;;;;;;5001282;28;20026;-73
2023/09/09 11:46:39;;;;;;;18.25;11.45;;;28.90;99.90;;;;;;5010454;28;20506;-72
2023/09/09 11:49:05;;;;;;;14.10;9.52;;;29.00;99.90;;;;;;5002208;28;20138;-72
2023/09/09 11:51:30;;;;;;;15.02;10.30;;;29.10;99.90;;;;;;5003028;28;20039;-74
2023/09/09 11:53:57;;;;;;;16.35;10.48;;;29.30;99.90;;;;;;5000671;28;20065;-73
2023/09/09 11:56:23;;;;;;;11.95;9.02;;;29.40;99.90;;;;;;5001013;28;20031;-74
2023/09/09 11:58:50;;;;;;;16.95;10.95;;;29.50;99.90;;;;;;4997083;28;20873;-70
2023/09/09 12:01:18;;;;;;;15.27;10.70;;;29.60;99.90;;;;;;4999548;28;20031;-72
2023/09/09 12:03:44;;;;;;;9.48;8.40;;;29.60;99.90;;;;;;4996362;28;20440;-73
2023/09/09 12:06:12;;;;;;;11.57;8.80;;;29.80;99.90;;;;;;4999639;28;20075;-74
2023/09/09 12:08:38;;;;;;;13.00;10.20;;;29.90;99.90;;;;;;5002497;28;20035;-72
2023/09/09 12:11:07;;;;;;;13.18;9.30;;;30.00;99.90;;;;;;5002440;28;20038;-72
2023/09/09 12:13:34;;;;;;;10.93;8.77;;;30.20;99.90;;;;;;5001504;28;20026;-73
2023/09/09 12:16:00;;;;;;;13.18;9.35;;;30.30;99.90;;;;;;5003220;28;20045;-74
2023/09/09 12:18:25;;;;;;;12.02;10.05;;;30.40;99.90;;;;;;5001357;28;20026;-73
2023/09/09 12:20:59;;;;;;;14.25;9.73;;;30.50;99.90;;;;;;4996652;28;20038;-74
2023/09/09 12:23:29;;;;;;;16.95;9.30;;;30.70;99.90;;;;;;5001297;28;20089;-73
2023/09/09 12:25:55;;;;;;;18.50;8.77;;;30.70;99.90;;;;;;4999877;28;20041;-71
2023/09/09 12:28:21;;;;;;;16.10;10.23;;;30.80;99.90;;;;;;5002481;28;20085;-72